Time;durP1;ratioP1;P1;durP2;ratioP2;P2;SDS_P1;SDS_P2;PMS_P1;PMS_P2;Temp;Humidity;BMP_temperature;BMP_pressure;BME280_temperature;BME280_humidity;BME280_pressure;Samples;Min_cycle;Max_cycle;Signal;HPM_P1;HPM_P2
2023/04/29 00:00:24;;;;;;;12.50;4.50;;;;;;;5.71;57.47;99808.69;108606;1266;72980;-68
2023/04/29 00:03:18;;;;;;;11.70;4.80;;;;;;;5.72;56.71;99807.58;108655;1263;67977;-66
2023/04/29 00:06:06;;;;;;;9.90;4.50;;;;;;;5.72;56.97;99808.08;108908;1263;71770;-70
2023/04/29 00:08:52;;;;;;;10.10;4.20;;;;;;;5.71;56.74;99798.63;108899;1266;57277;-68
2023/04/29 00:11:39;;;;;;;13.00;5.10;;;;;;;5.70;56.53;99796.76;108760;1263;58956;-67
2023/04/29 00:14:27;;;;;;;10.50;4.20;;;;;;;5.68;56.35;99793.02;108868;1263;72742;-68
2023/04/29 00:17:15;;;;;;;10.80;4.60;;;;;;;5.66;56.28;99789.04;107997;1263;1003012;-67
2023/04/29 00:20:02;;;;;;;11.90;4.60;;;;;;;5.65;55.71;99792.84;108630;1264;72724;-67
2023/04/29 00:22:49;;;;;;;11.30;4.80;;;;;;;5.64;55.45;99792.38;108506;1273;57453;-69
2023/04/29 00:25:37;;;;;;;10.80;4.30;;;;;;;5.63;55.70;99789.41;108703;1263;58175;-67
2023/04/29 00:28:24;;;;;;;12.80;4.80;;;;;;;5.60;55.61;99783.60;108537;1265;72851;-67
2023/04/29 00:31:10;;;;;;;12.90;4.30;;;;;;;5.59;55.91;99780.52;108580;1263;67827;-69
2023/04/29 00:33:58;;;;;;;11.40;4.50;;;;;;;5.56;55.96;99780.86;108774;1263;72591;-67
2023/04/29 00:36:44;;;;;;;10.70;4.70;;;;;;;5.54;55.62;99781.73;108801;1263;57470;-67
2023/04/29 00:39:31;;;;;;;9.50;4.30;;;;;;;5.52;55.68;99777.23;108577;1263;61053;-69
2023/04/29 00:42:18;;;;;;;8.70;3.70;;;;;;;5.50;55.73;99774.56;108834;1263;70861;-68
2023/04/29 00:45:05;;;;;;;10.30;4.30;;;;;;;5.48;55.77;99773.98;108841;1263;67805;-70
2023/04/29 00:47:54;;;;;;;9.90;6.20;;;;;;;5.46;55.64;99776.19;108618;1263;72316;-68
2023/04/29 00:50:41;;;;;;;12.10;4.50;;;;;;;5.46;55.35;99771.11;108656;1262;57453;-68
2023/04/29 00:53:31;;;;;;;9.30;3.90;;;;;;;5.46;55.14;99773.59;108772;1263;57765;-72
2023/04/29 00:56:19;;;;;;;11.20;4.40;;;;;;;5.46;55.52;99770.38;108746;1263;71530;-68
2023/04/29 00:59:09;;;;;;;11.50;4.60;;;;;;;5.46;55.43;99770.55;108801;1260;68916;-69
2023/04/29 01:01:55;;;;;;;9.20;4.30;;;;;;;5.46;55.21;99769.54;108900;1260;71393;-68
2023/04/29 01:04:44;;;;;;;12.00;4.50;;;;;;;5.45;55.31;99773.45;108875;1260;57483;-68
2023/04/29 01:07:47;;;;;;;10.60;4.80;;;;;;;5.45;55.44;99768.71;108986;1259;58983;-66
2023/04/29 01:11:06;;;;;;;11.50;5.20;;;;;;;5.45;55.27;99769.60;108926;1260;71735;-69
2023/04/29 01:14:02;;;;;;;11.30;5.00;;;;;;;5.44;55.09;99770.00;108907;1260;68929;-67
2023/04/29 01:16:58;;;;;;;10.10;4.90;;;;;;;5.46;55.01;99766.71;108768;1262;72693;-69
2023/04/29 01:19:54;;;;;;;11.30;4.50;;;;;;;5.46;55.36;99764.09;108830;1262;57341;-69
2023/04/29 01:22:41;;;;;;;10.90;4.70;;;;;;;5.45;55.24;99762.70;108866;1261;59138;-68
2023/04/29 01:25:28;;;;;;;10.80;5.30;;;;;;;5.46;55.37;99765.68;108019;1263;1002381;-65
2023/04/29 01:29:01;;;;;;;10.20;4.10;;;;;;;5.46;55.21;99759.34;108765;1262;67960;-67
2023/04/29 01:32:14;;;;;;;9.50;4.30;;;;;;;5.45;55.32;99758.48;108814;1263;72934;-68
2023/04/29 01:35:45;;;;;;;11.30;4.70;;;;;;;5.45;55.30;99756.76;108820;1263;57324;-69
2023/04/29 01:38:56;;;;;;;10.90;4.70;;;;;;;5.44;55.43;99758.02;108772;1263;59422;-68
2023/04/29 01:41:51;;;;;;;9.40;4.30;;;;;;;5.44;55.77;99753.80;108767;1263;71538;-66
2023/04/29 01:44:42;;;;;;;9.60;4.30;;;;;;;5.43;55.70;99751.06;108791;1262;68311;-68
2023/04/29 01:47:31;;;;;;;12.80;4.70;;;;;;;5.43;55.67;99751.91;108694;1260;72461;-67
2023/04/29 01:50:17;;;;;;;9.90;4.10;;;;;;;5.43;55.81;99750.70;108880;1260;57400;-67
2023/04/29 01:53:04;;;;;;;13.40;4.50;;;;;;;5.42;55.70;99747.59;108917;1258;60353;-68
2023/04/29 01:55:51;;;;;;;9.10;4.50;;;;;;;5.42;56.05;99745.63;108874;1260;72926;-68
2023/04/29 01:59:00;;;;;;;10.20;4.40;;;;;;;5.42;56.59;99742.13;109007;1259;68962;-67
2023/04/29 02:02:02;;;;;;;10.80;4.50;;;;;;;5.42;56.55;99740.55;108921;1260;72637;-67
2023/04/29 02:04:50;;;;;;;10.60;4.80;;;;;;;5.41;56.69;99734.98;108214;1260;1003032;-68
2023/04/29 02:07:37;;;;;;;11.60;4.60;;;;;;;5.41;56.89;99732.17;108993;1259;59529;-67
2023/04/29 02:10:26;;;;;;;11.40;4.70;;;;;;;5.42;57.20;99728.06;108857;1260;72953;-67
2023/04/29 02:13:24;;;;;;;11.70;4.70;;;;;;;5.42;57.23;99726.98;108859;1259;67981;-68
2023/04/29 02:16:14;;;;;;;9.90;4.30;;;;;;;5.43;58.35;99723.06;108993;1261;72576;-66
2023/04/29 02:19:12;;;;;;;10.10;4.20;;;;;;;5.43;58.01;99722.17;108907;1260;57236;-68
2023/04/29 02:21:59;;;;;;;10.70;4.30;;;;;;;5.43;58.38;99724.29;108974;1260;60379;-67
2023/04/29 02:24:46;;;;;;;12.70;4.70;;;;;;;5.43;58.12;99720.63;108853;1260;74000;-67
2023/04/29 02:27:33;;;;;;;13.00;4.40;;;;;;;5.42;58.22;99714.02;108849;1260;67918;-66
2023/04/29 02:30:19;;;;;;;12.90;5.00;;;;;;;5.42;57.94;99713.11;108967;1259;73212;-67
2023/04/29 02:33:06;;;;;;;10.40;4.50;;;;;;;5.40;57.95;99708.11;108808;1264;57393;-67
2023/04/29 02:35:54;;;;;;;10.50;4.80;;;;;;;5.39;58.11;99707.67;109008;1259;59097;-69
2023/04/29 02:38:42;;;;;;;10.30;4.40;;;;;;;5.38;58.35;99707.38;108846;1259;72995;-68
2023/04/29 02:41:29;;;;;;;10.30;4.90;;;;;;;5.37;58.76;99697.26;108869;1259;67911;-67
2023/04/29 02:44:16;;;;;;;10.50;4.70;;;;;;;5.34;58.29;99698.43;108948;1260;72545;-68
2023/04/29 02:47:02;;;;;;;11.80;4.90;;;;;;;5.34;57.94;99696.58;108807;1260;57265;-67
2023/04/29 02:49:49;;;;;;;10.80;4.70;;;;;;;5.32;57.75;99693.65;108990;1259;59027;-67
2023/04/29 02:52:37;;;;;;;11.60;4.90;;;;;;;5.33;57.91;99693.48;109044;1259;73117;-67
2023/04/29 02:55:24;;;;;;;12.00;5.10;;;;;;;5.33;57.98;99690.81;108741;1260;67728;-67
2023/04/29 02:58:10;;;;;;;11.40;5.40;;;;;;;5.35;57.30;99692.96;108980;1260;72026;-68
2023/04/29 03:00:57;;;;;;;12.90;5.30;;;;;;;5.39;57.07;99692.02;108892;1260;57261;-67
2023/04/29 03:03:44;;;;;;;15.00;5.10;;;;;;;5.42;57.38;99692.48;108747;1259;60284;-66
2023/04/29 03:06:31;;;;;;;12.60;5.10;;;;;;;5.46;57.32;99691.05;108883;1260;73114;-66
2023/04/29 03:09:18;;;;;;;12.90;5.00;;;;;;;5.50;57.16;99693.26;108852;1260;65985;-68
2023/04/29 03:12:05;;;;;;;10.90;5.30;;;;;;;5.52;57.13;99690.83;108858;1259;72520;-68
2023/04/29 03:14:51;;;;;;;12.20;4.90;;;;;;;5.55;57.15;99692.96;108828;1263;57676;-68
2023/04/29 03:17:38;;;;;;;12.10;4.80;;;;;;;5.58;56.88;99689.04;108919;1260;60066;-68
2023/04/29 03:20:25;;;;;;;10.70;4.70;;;;;;;5.61;57.43;99691.13;108981;1260;73090;-70
2023/04/29 03:23:12;;;;;;;11.10;4.60;;;;;;;5.65;57.62;99686.55;108996;1260;68282;-68
2023/04/29 03:26:00;;;;;;;12.10;5.00;;;;;;;5.66;56.80;99686.44;108782;1260;71111;-67
2023/04/29 03:28:46;;;;;;;11.70;5.10;;;;;;;5.68;57.19;99680.73;108948;1260;58368;-68
2023/04/29 03:31:33;;;;;;;11.20;4.40;;;;;;;5.71;57.39;99677.51;108984;1260;58315;-70
2023/04/29 03:34:22;;;;;;;12.40;5.20;;;;;;;5.73;56.42;99678.63;108981;1260;71550;-70
2023/04/29 03:37:15;;;;;;;13.00;4.60;;;;;;;5.75;56.23;99678.11;108611;1260;66820;-71
2023/04/29 03:40:05;;;;;;;10.70;4.60;;;;;;;5.78;56.10;99679.85;108940;1260;71396;-66
2023/04/29 03:42:53;;;;;;;12.50;5.20;;;;;;;5.82;56.01;99679.08;108982;1260;57364;-69
2023/04/29 03:45:40;;;;;;;13.50;5.70;;;;;;;5.87;55.06;99680.73;108846;1259;60447;-69
2023/04/29 03:48:26;;;;;;;11.40;5.20;;;;;;;5.91;55.11;99679.02;108967;1260;71743;-70
2023/04/29 03:51:15;;;;;;;12.00;5.40;;;;;;;5.96;54.94;99678.20;108882;1260;67735;-69
2023/04/29 03:54:03;;;;;;;11.50;5.10;;;;;;;6.02;54.89;99681.20;108898;1260;71539;-67
2023/04/29 03:56:50;;;;;;;11.70;5.20;;;;;;;6.07;54.48;99683.52;108785;1260;58185;-68
2023/04/29 03:59:36;;;;;;;12.00;5.20;;;;;;;6.12;54.49;99680.89;108914;1259;58987;-70
2023/04/29 04:02:24;;;;;;;12.50;5.40;;;;;;;6.18;53.85;99680.16;107986;1259;1002910;-70
2023/04/29 04:05:11;;;;;;;9.90;4.80;;;;;;;6.23;54.10;99678.59;108803;1260;66927;-68
2023/04/29 04:08:00;;;;;;;13.90;5.80;;;;;;;6.28;54.16;99679.31;108788;1258;72038;-69
2023/04/29 04:10:53;;;;;;;14.90;5.90;;;;;;;6.34;53.80;99673.69;108861;1259;57467;-69
2023/04/29 04:14:04;;;;;;;10.40;5.20;;;;;;;6.40;53.64;99672.19;107816;1266;1002139;-70
2023/04/29 04:16:51;;;;;;;13.20;5.40;;;;;;;6.46;53.45;99671.27;108510;1263;71885;-70
2023/04/29 04:19:37;;;;;;;11.00;4.80;;;;;;;6.52;53.52;99669.64;108467;1264;66432;-70
2023/04/29 04:22:25;;;;;;;12.10;5.90;;;;;;;6.59;53.51;99671.27;108584;1263;73190;-69
2023/04/29 04:25:26;;;;;;;11.90;5.90;;;;;;;6.67;53.06;99668.33;108525;1266;57343;-70
2023/04/29 04:28:15;;;;;;;15.00;5.60;;;;;;;6.75;53.41;99670.91;108680;1265;59684;-68
2023/04/29 04:31:14;;;;;;;9.80;5.00;;;;;;;6.84;53.32;99664.34;108703;1263;72950;-71
2023/04/29 04:34:01;;;;;;;12.40;6.00;;;;;;;6.92;53.18;99662.38;108669;1263;65751;-71
2023/04/29 04:36:47;;;;;;;15.00;5.70;;;;;;;6.99;52.91;99665.05;108621;1263;71492;-69
2023/04/29 04:39:34;;;;;;;11.40;5.70;;;;;;;7.06;52.58;99667.94;108629;1263;57309;-70
2023/04/29 04:42:22;;;;;;;12.40;5.40;;;;;;;7.12;52.66;99665.73;108655;1263;59045;-67
2023/04/29 04:45:10;;;;;;;14.50;5.60;;;;;;;7.22;52.67;99660.98;108905;1260;71489;-79
2023/04/29 04:48:02;;;;;;;16.20;8.60;;;;;;;7.34;52.64;99658.40;108789;1260;68246;-76
2023/04/29 04:50:51;;;;;;;12.30;5.30;;;;;;;7.48;52.75;99660.38;108872;1259;71098;-79
2023/04/29 04:53:41;;;;;;;10.70;5.70;;;;;;;7.60;51.81;99660.82;108835;1260;57282;-79
2023/04/29 04:56:31;;;;;;;11.20;5.70;;;;;;;7.69;51.82;99658.40;108927;1263;60158;-78
2023/04/29 04:59:20;;;;;;;13.30;5.00;;;;;;;7.78;51.50;99657.89;108841;1260;72720;-79
2023/04/29 05:02:07;;;;;;;11.10;5.00;;;;;;;7.85;51.41;99656.18;108812;1260;67793;-80
2023/04/29 05:04:54;;;;;;;13.80;6.00;;;;;;;7.91;51.15;99658.39;108952;1260;72791;-78
2023/04/29 05:07:41;;;;;;;13.70;6.50;;;;;;;7.97;51.20;99653.52;108789;1260;57297;-70
2023/04/29 05:10:29;;;;;;;15.70;5.90;;;;;;;8.03;50.74;99656.45;108926;1260;59265;-70
2023/04/29 05:13:18;;;;;;;12.40;5.60;;;;;;;8.04;50.89;99658.17;108836;1259;71599;-69
2023/04/29 05:16:05;;;;;;;12.20;6.00;;;;;;;8.04;50.84;99652.84;108925;1260;67840;-68
2023/04/29 05:18:53;;;;;;;12.40;6.20;;;;;;;8.03;50.89;99651.87;108900;1260;71501;-68
2023/04/29 05:21:41;;;;;;;13.00;6.10;;;;;;;8.04;51.15;99648.79;108903;1261;57929;-69
2023/04/29 05:24:29;;;;;;;12.60;5.60;;;;;;;8.03;51.35;99644.41;108867;1260;60142;-69
2023/04/29 05:27:16;;;;;;;14.40;6.60;;;;;;;8.09;51.57;99645.39;108863;1259;72935;-71
2023/04/29 05:30:03;;;;;;;10.70;5.10;;;;;;;8.11;51.10;99650.59;108977;1259;68085;-71
2023/04/29 05:32:49;;;;;;;12.70;5.70;;;;;;;8.12;51.43;99646.63;108894;1260;72596;-73
2023/04/29 05:35:37;;;;;;;9.90;5.20;;;;;;;8.13;51.35;99648.48;109013;1260;57340;-66
2023/04/29 05:38:27;;;;;;;14.10;6.50;;;;;;;8.10;51.24;99648.35;108870;1261;60384;-70
2023/04/29 05:41:23;;;;;;;19.90;7.40;;;;;;;8.11;51.62;99639.80;108783;1260;73523;-68
2023/04/29 05:44:24;;;;;;;19.00;7.30;;;;;;;8.11;51.31;99639.96;108958;1261;66560;-66
2023/04/29 05:47:11;;;;;;;24.50;7.80;;;;;;;8.06;51.10;99644.25;109046;1258;73607;-71
2023/04/29 05:50:00;;;;;;;16.40;6.60;;;;;;;8.08;51.47;99641.42;108582;1260;57496;-67
2023/04/29 05:52:47;;;;;;;15.50;6.30;;;;;;;8.16;51.72;99636.05;108937;1259;58952;-68
2023/04/29 05:55:34;;;;;;;14.30;6.30;;;;;;;8.28;51.42;99635.16;108967;1260;72867;-72
2023/04/29 05:58:21;;;;;;;14.40;6.20;;;;;;;8.41;51.27;99632.09;109023;1260;66654;-69
2023/04/29 06:01:08;;;;;;;13.60;6.10;;;;;;;8.58;51.15;99629.09;108958;1260;70651;-68
2023/04/29 06:03:55;;;;;;;14.50;6.20;;;;;;;8.82;51.12;99627.20;108857;1259;57451;-69
2023/04/29 06:06:56;;;;;;;14.00;6.40;;;;;;;9.05;50.36;99629.67;108958;1261;59039;-72
2023/04/29 06:10:02;;;;;;;14.70;6.10;;;;;;;9.34;49.72;99625.09;108986;1259;72862;-69
2023/04/29 06:12:55;;;;;;;14.10;6.40;;;;;;;9.71;48.97;99631.38;108975;1260;66619;-69
2023/04/29 06:15:46;;;;;;;14.80;6.60;;;;;;;10.12;47.76;99633.17;108845;1263;72555;-69
2023/04/29 06:18:33;;;;;;;13.80;6.30;;;;;;;10.49;46.76;99627.52;108583;1263;59088;-69
2023/04/29 06:21:20;;;;;;;13.20;6.00;;;;;;;10.80;45.89;99626.46;108794;1263;60216;-69
2023/04/29 06:24:07;;;;;;;13.00;6.40;;;;;;;10.97;45.47;99626.48;108554;1263;212879;-69
2023/04/29 06:26:54;;;;;;;13.20;6.30;;;;;;;11.29;45.19;99622.77;108579;1263;67118;-69
2023/04/29 06:29:41;;;;;;;11.90;6.20;;;;;;;11.65;44.70;99622.48;108608;1262;71198;-70
2023/04/29 06:32:28;;;;;;;13.30;6.40;;;;;;;12.15;43.92;99618.15;108733;1262;57869;-71
2023/04/29 06:35:17;;;;;;;11.60;5.70;;;;;;;12.67;43.13;99611.04;108765;1263;60196;-70
2023/04/29 06:38:25;;;;;;;13.10;6.50;;;;;;;13.26;41.03;99611.38;108696;1263;74334;-71
2023/04/29 06:41:44;;;;;;;13.70;6.10;;;;;;;14.04;40.53;99609.66;108384;1264;67807;-74
2023/04/29 06:44:51;;;;;;;13.80;7.30;;;;;;;14.83;38.18;99607.04;108366;1266;72888;-72
2023/04/29 06:48:06;;;;;;;14.20;6.70;;;;;;;15.61;37.28;99603.02;108706;1260;57849;-72
2023/04/29 06:51:07;;;;;;;13.70;7.40;;;;;;;16.45;35.85;99603.65;108729;1261;57913;-70
2023/04/29 06:53:55;;;;;;;13.40;6.40;;;;;;;17.30;34.93;99603.17;108716;1262;72039;-73
2023/04/29 06:56:42;;;;;;;15.80;7.40;;;;;;;18.00;32.82;99602.13;108724;1263;67902;-71
2023/04/29 06:59:29;;;;;;;12.10;7.20;;;;;;;18.49;32.27;99598.39;108741;1260;71264;-71
2023/04/29 07:02:16;;;;;;;11.80;6.60;;;;;;;18.76;31.68;99593.58;108642;1267;57340;-71
2023/04/29 07:05:04;;;;;;;15.00;7.40;;;;;;;18.90;30.85;99591.90;108704;1263;60067;-72
2023/04/29 07:07:50;;;;;;;14.00;7.70;;;;;;;18.71;30.99;99590.33;108645;1260;71677;-70
2023/04/29 07:10:37;;;;;;;14.20;7.30;;;;;;;18.47;31.39;99587.79;108725;1260;69025;-72
2023/04/29 07:13:25;;;;;;;12.70;6.70;;;;;;;18.32;31.79;99589.43;108985;1259;71606;-73
2023/04/29 07:16:20;;;;;;;13.80;7.50;;;;;;;18.16;32.13;99592.20;108894;1260;57884;-70
2023/04/29 07:19:07;;;;;;;14.60;7.90;;;;;;;17.77;31.74;99588.64;108850;1259;60074;-69
2023/04/29 07:21:55;;;;;;;13.30;7.00;;;;;;;17.62;32.10;99586.83;108826;1260;72200;-72
2023/04/29 07:24:43;;;;;;;13.60;7.30;;;;;;;18.02;31.80;99586.23;108702;1260;66992;-72
2023/04/29 07:27:31;;;;;;;12.60;6.90;;;;;;;18.58;31.67;99578.63;108790;1260;73489;-71
2023/04/29 07:30:18;;;;;;;16.10;7.20;;;;;;;19.06;30.57;99573.93;108883;1259;57281;-72
2023/04/29 07:33:05;;;;;;;13.80;7.00;;;;;;;19.70;30.42;99572.98;108877;1259;59582;-70
2023/04/29 07:35:52;;;;;;;11.70;6.70;;;;;;;20.38;29.94;99575.10;108632;1263;72851;-72
2023/04/29 07:38:40;;;;;;;12.70;6.30;;;;;;;20.96;29.04;99570.13;108691;1264;66472;-72
2023/04/29 07:41:27;;;;;;;13.20;7.00;;;;;;;21.47;27.65;99564.92;108755;1263;72846;-72
2023/04/29 07:44:13;;;;;;;13.10;6.70;;;;;;;22.25;27.30;99561.90;108612;1266;57820;-72
2023/04/29 07:47:00;;;;;;;15.00;7.20;;;;;;;22.93;26.72;99558.77;108604;1265;59127;-72
2023/04/29 07:49:47;;;;;;;12.30;6.40;;;;;;;23.59;25.67;99562.80;108592;1265;72024;-74
2023/04/29 07:52:34;;;;;;;11.30;6.50;;;;;;;24.07;24.54;99563.38;108466;1265;67977;-73
2023/04/29 07:55:20;;;;;;;12.00;6.60;;;;;;;24.43;23.50;99565.23;108603;1266;71392;-69
2023/04/29 07:58:07;;;;;;;12.20;6.70;;;;;;;24.93;23.05;99565.98;108631;1265;57416;-69
2023/04/29 08:00:53;;;;;;;13.90;6.50;;;;;;;24.83;22.86;99561.33;108537;1266;61212;-67
2023/04/29 08:03:40;;;;;;;12.40;7.10;;;;;;;25.14;22.96;99561.37;108599;1265;71824;-71
2023/04/29 08:06:29;;;;;;;13.00;6.70;;;;;;;25.52;22.48;99558.44;108684;1262;67809;-70
2023/04/29 08:09:16;;;;;;;12.20;7.20;;;;;;;25.80;22.20;99556.05;108709;1263;71249;-73
2023/04/29 08:12:03;;;;;;;13.60;7.00;;;;;;;26.14;21.46;99554.33;108703;1262;58317;-73
2023/04/29 08:14:50;;;;;;;12.40;6.40;;;;;;;26.47;21.49;99553.72;108808;1259;61510;-71
2023/04/29 08:17:37;;;;;;;12.50;7.40;;;;;;;26.83;20.69;99549.58;108879;1259;72905;-72
2023/04/29 08:20:23;;;;;;;14.50;7.30;;;;;;;27.15;20.21;99545.58;108802;1260;66569;-72
2023/04/29 08:23:15;;;;;;;12.60;7.00;;;;;;;27.41;19.92;99548.14;108879;1259;71239;-71
2023/04/29 08:26:02;;;;;;;15.90;9.60;;;;;;;27.85;19.90;99546.20;109034;1259;57710;-71
2023/04/29 08:28:49;;;;;;;15.10;8.00;;;;;;;27.83;19.77;99551.36;109067;1259;58847;-71
2023/04/29 08:31:40;;;;;;;13.30;7.80;;;;;;;27.11;19.93;99546.98;108983;1259;73125;-72
2023/04/29 08:34:27;;;;;;;14.60;7.30;;;;;;;27.37;20.06;99542.55;108936;1259;66385;-72
2023/04/29 08:37:15;;;;;;;13.20;7.70;;;;;;;27.74;19.88;99545.23;109020;1259;72699;-72
2023/04/29 08:40:06;;;;;;;13.10;8.20;;;;;;;27.20;19.22;99545.04;108899;1259;58357;-71
2023/04/29 08:42:54;;;;;;;11.60;7.10;;;;;;;27.23;19.89;99541.37;108939;1259;61628;-72
2023/04/29 08:45:42;;;;;;;12.70;7.00;;;;;;;27.64;20.08;99536.97;108974;1259;73073;-73
2023/04/29 08:48:29;;;;;;;15.40;7.20;;;;;;;27.84;19.59;99532.06;109038;1260;66585;-70
2023/04/29 08:51:16;;;;;;;17.90;7.60;;;;;;;28.13;19.14;99533.52;109106;1260;71059;-72
2023/04/29 08:54:05;;;;;;;12.70;7.00;;;;;;;28.21;18.83;99527.90;108749;1267;57406;-72
2023/04/29 08:56:54;;;;;;;11.70;6.90;;;;;;;27.97;18.93;99530.88;108673;1267;60718;-75
2023/04/29 08:59:42;;;;;;;12.10;6.90;;;;;;;27.80;20.02;99529.05;108304;1270;72229;-72
2023/04/29 09:02:29;;;;;;;13.90;7.10;;;;;;;27.77;19.80;99526.27;107594;1272;68406;-72
2023/04/29 09:05:16;;;;;;;11.60;6.30;;;;;;;27.76;20.09;99520.61;108010;1273;72791;-69
2023/04/29 09:08:04;;;;;;;12.10;6.70;;;;;;;27.74;20.10;99521.27;107888;1271;58189;-72
2023/04/29 09:10:58;;;;;;;11.90;6.90;;;;;;;27.74;20.01;99522.92;107748;1276;58964;-72
2023/04/29 09:13:45;;;;;;;14.10;7.80;;;;;;;26.82;20.38;99534.52;107700;1275;71665;-72
2023/04/29 09:16:31;;;;;;;12.60;7.20;;;;;;;25.82;21.32;99534.17;107507;1276;66510;-71
2023/04/29 09:19:35;;;;;;;13.60;6.80;;;;;;;25.10;22.24;99529.45;107539;1276;73575;-72
2023/04/29 09:22:22;;;;;;;12.60;7.50;;;;;;;24.53;23.14;99529.88;107676;1276;57717;-72
2023/04/29 09:25:13;;;;;;;12.60;7.80;;;;;;;24.06;24.45;99524.70;107835;1276;60391;-73
2023/04/29 09:28:15;;;;;;;12.90;8.80;;;;;;;23.57;24.97;99525.41;107581;1276;72866;-74
2023/04/29 09:31:07;;;;;;;15.70;7.70;;;;;;;22.84;25.81;99525.77;107595;1275;67769;-71
2023/04/29 09:33:56;;;;;;;13.80;8.70;;;;;;;22.68;26.51;99524.19;107724;1276;71189;-71
2023/04/29 09:36:47;;;;;;;15.10;8.40;;;;;;;22.74;27.07;99523.18;107746;1275;57802;-71
2023/04/29 09:39:39;;;;;;;15.70;8.50;;;;;;;22.85;27.16;99518.80;107444;1276;58835;-70
2023/04/29 09:42:26;;;;;;;14.50;8.80;;;;;;;23.00;27.07;99515.14;107516;1275;71721;-73
2023/04/29 09:45:12;;;;;;;16.40;8.80;;;;;;;23.12;27.43;99512.77;107527;1276;66378;-71
2023/04/29 09:48:06;;;;;;;15.50;9.30;;;;;;;23.28;27.07;99513.84;107897;1271;71159;-72
2023/04/29 09:51:01;;;;;;;15.40;9.40;;;;;;;23.60;26.93;99516.25;108031;1273;58872;-69
2023/04/29 09:53:48;;;;;;;15.00;9.40;;;;;;;23.73;26.92;99517.34;107579;1276;58975;-72
2023/04/29 09:56:50;;;;;;;17.10;9.80;;;;;;;23.82;26.90;99515.83;107466;1276;73077;-73
2023/04/29 09:59:40;;;;;;;17.40;9.40;;;;;;;23.99;27.14;99516.14;107606;1276;66552;-72
2023/04/29 10:02:30;;;;;;;15.50;9.90;;;;;;;24.68;26.49;99523.08;107544;1276;72292;-71
2023/04/29 10:05:18;;;;;;;15.50;9.50;;;;;;;25.59;25.50;99528.89;107448;1276;57455;-70
2023/04/29 10:08:05;;;;;;;15.10;9.80;;;;;;;25.83;25.00;99535.88;107578;1276;60069;-73
2023/04/29 10:10:56;;;;;;;15.80;10.20;;;;;;;25.95;24.92;99534.05;107382;1276;71657;-73
2023/04/29 10:13:47;;;;;;;16.60;10.30;;;;;;;25.66;25.07;99530.73;107553;1276;67796;-71
2023/04/29 10:17:01;;;;;;;16.20;10.20;;;;;;;25.40;25.58;99526.92;107722;1276;73222;-72
2023/04/29 10:20:01;;;;;;;17.70;10.10;;;;;;;24.64;26.80;99525.00;107603;1276;57501;-71
2023/04/29 10:22:55;;;;;;;19.80;10.70;;;;;;;23.73;27.99;99527.33;107321;1276;60562;-68
2023/04/29 10:25:46;;;;;;;18.20;11.50;;;;;;;22.92;29.21;99525.37;107824;1272;73127;-70
2023/04/29 10:28:37;;;;;;;18.60;11.20;;;;;;;22.02;30.26;99530.44;107778;1272;67808;-72
2023/04/29 10:31:27;;;;;;;15.30;10.00;;;;;;;21.08;31.80;99529.65;107875;1272;72540;-71
2023/04/29 10:34:18;;;;;;;18.80;9.50;;;;;;;20.06;33.35;99525.17;108045;1272;57411;-70
2023/04/29 10:37:10;;;;;;;15.10;9.60;;;;;;;18.91;35.43;99523.37;108280;1272;58535;-71
2023/04/29 10:40:17;;;;;;;17.30;10.30;;;;;;;18.24;36.75;99524.46;108182;1272;71619;-72
2023/04/29 10:43:05;;;;;;;15.70;9.60;;;;;;;17.60;38.15;99534.41;108127;1272;69209;-69
2023/04/29 10:46:27;;;;;;;20.70;10.40;;;;;;;17.31;39.06;99533.54;107778;1272;72778;-70
2023/04/29 10:49:16;;;;;;;16.90;9.70;;;;;;;17.03;39.76;99530.67;107373;1280;57490;-69
2023/04/29 10:52:06;;;;;;;17.70;9.70;;;;;;;16.74;40.65;99526.50;106838;1280;59003;-69
2023/04/29 10:55:02;;;;;;;19.20;10.10;;;;;;;16.68;41.15;99534.34;107372;1280;72915;-69
2023/04/29 10:57:55;;;;;;;17.80;10.40;;;;;;;16.57;41.74;99530.24;107242;1280;67071;-68
2023/04/29 11:00:42;;;;;;;14.50;9.30;;;;;;;16.39;42.38;99530.21;107182;1280;71623;-72
2023/04/29 11:04:08;;;;;;;15.10;9.40;;;;;;;16.25;42.64;99529.83;107299;1279;58418;-72
2023/04/29 11:06:58;;;;;;;17.70;10.50;;;;;;;16.14;43.21;99534.63;107186;1280;61217;-72
2023/04/29 11:09:50;;;;;;;16.40;10.90;;;;;;;16.05;43.51;99531.10;107385;1280;71575;-71
2023/04/29 11:12:36;;;;;;;18.30;9.90;;;;;;;15.99;43.97;99534.59;107057;1280;68807;-71
2023/04/29 11:15:24;;;;;;;16.30;10.40;;;;;;;15.90;44.48;99539.30;107444;1280;72675;-69
2023/04/29 11:18:10;;;;;;;17.00;11.10;;;;;;;15.83;45.06;99541.09;107167;1281;57615;-72
2023/04/29 11:21:08;;;;;;;19.10;9.50;;;;;;;15.75;45.53;99539.88;107079;1280;60143;-71
2023/04/29 11:24:00;;;;;;;16.40;9.10;;;;;;;15.62;46.24;99541.20;108071;1272;73192;-69
2023/04/29 11:26:47;;;;;;;17.30;9.50;;;;;;;15.47;46.73;99537.84;108084;1271;68063;-71
2023/04/29 11:29:37;;;;;;;21.90;11.20;;;;;;;15.30;47.84;99538.36;108243;1272;71254;-72
2023/04/29 11:32:30;;;;;;;15.50;9.40;;;;;;;14.88;48.83;99541.66;108035;1272;57410;-72
2023/04/29 11:35:18;;;;;;;16.80;10.00;;;;;;;14.65;49.47;99537.58;108254;1272;60169;-73
2023/04/29 11:38:10;;;;;;;17.40;9.70;;;;;;;14.48;50.50;99539.71;107918;1271;72079;-69
2023/04/29 11:40:58;;;;;;;16.30;9.20;;;;;;;14.35;50.84;99536.18;108176;1272;67939;-69
2023/04/29 11:43:46;;;;;;;17.20;10.70;;;;;;;14.20;51.71;99542.84;108084;1271;72471;-71
2023/04/29 11:46:33;;;;;;;16.90;9.40;;;;;;;13.98;52.33;99551.62;107876;1271;57369;-70
2023/04/29 11:49:19;;;;;;;15.10;8.50;;;;;;;13.85;52.83;99555.58;108014;1271;60107;-71
2023/04/29 11:52:07;;;;;;;17.70;9.90;;;;;;;13.78;53.20;99561.80;108106;1271;71646;-70
2023/04/29 11:54:58;;;;;;;16.60;9.80;;;;;;;13.79;53.40;99554.42;108126;1272;67869;-70
2023/04/29 11:57:50;;;;;;;16.00;9.10;;;;;;;13.71;53.70;99553.65;107881;1272;71794;-71
2023/04/29 12:00:37;;;;;;;14.90;8.40;;;;;;;13.72;53.75;99552.31;108082;1272;57558;-69
2023/04/29 12:03:23;;;;;;;16.60;9.20;;;;;;;13.65;54.27;99552.45;108171;1271;60896;-71
2023/04/29 12:06:12;;;;;;;16.90;8.80;;;;;;;13.56;54.58;99551.83;107770;1272;73153;-69
2023/04/29 12:09:00;;;;;;;16.00;9.40;;;;;;;13.57;54.62;99550.70;108167;1272;67953;-71
2023/04/29 12:11:51;;;;;;;19.10;8.60;;;;;;;13.56;54.60;99543.27;107631;1275;73480;-70
2023/04/29 12:14:40;;;;;;;13.20;7.00;;;;;;;13.64;54.53;99541.08;107676;1275;57699;-71
2023/04/29 12:17:31;;;;;;;15.80;10.00;;;;;;;13.73;54.10;99543.04;107709;1274;59249;-70
2023/04/29 12:20:19;;;;;;;17.60;9.40;;;;;;;13.89;53.66;99534.76;107675;1274;74057;-71
2023/04/29 12:23:27;;;;;;;17.50;9.00;;;;;;;14.06;53.51;99530.35;107539;1275;66935;-70
2023/04/29 12:26:13;;;;;;;17.20;8.20;;;;;;;14.21;53.44;99527.45;107496;1275;72572;-71
2023/04/29 12:29:01;;;;;;;16.60;8.30;;;;;;;14.41;52.49;99521.14;107168;1278;57955;-72
2023/04/29 12:31:51;;;;;;;13.80;7.70;;;;;;;14.53;51.25;99518.23;107048;1279;58874;-71
2023/04/29 12:34:40;;;;;;;12.90;7.10;;;;;;;14.49;50.48;99515.27;107102;1281;73153;-71
2023/04/29 12:37:27;;;;;;;13.60;6.50;;;;;;;14.47;50.08;99519.01;107100;1281;67918;-70
2023/04/29 12:40:15;;;;;;;14.40;6.70;;;;;;;14.51;49.57;99521.54;106890;1280;72744;-69
2023/04/29 12:43:10;;;;;;;13.00;6.10;;;;;;;14.54;49.67;99518.00;107109;1277;57454;-72
2023/04/29 12:46:04;;;;;;;12.60;5.90;;;;;;;14.59;49.32;99520.11;107205;1277;58882;-69
2023/04/29 12:48:52;;;;;;;12.40;6.30;;;;;;;14.61;48.86;99519.38;107399;1279;73146;-71
2023/04/29 12:51:38;;;;;;;10.40;5.10;;;;;;;14.54;48.59;99518.58;107341;1278;67695;-71
2023/04/29 12:54:26;;;;;;;12.90;6.00;;;;;;;14.39;48.80;99514.52;107482;1278;72565;-70
2023/04/29 12:57:13;;;;;;;11.70;6.00;;;;;;;14.33;49.26;99512.05;107077;1279;57842;-74
2023/04/29 13:00:00;;;;;;;11.30;5.30;;;;;;;14.28;49.47;99503.19;107340;1278;60294;-70
2023/04/29 13:02:47;;;;;;;13.50;6.00;;;;;;;14.29;49.61;99508.77;107281;1278;71195;-70
2023/04/29 13:05:33;;;;;;;14.70;5.60;;;;;;;14.27;49.84;99507.84;107767;1275;66687;-70